Thursday, August 28, 2014, 9:21 AM EDT

KOXB, Ocean City Municipal Airport

Location: Berlin, MD, United States Lat: 38.317
Local Time: 9:21 AM EDT (13:21 GMT) Lon: -75.117
Time Zone: US/Eastern Elev: 13 ft

Show me the last for .
Show Decoded

2014-08-28 08:53 METAR KOXB 281253Z AUTO 36009KT 10SM CLR 26/21 A2991 RMK AO2 SLP129 T02560206
                 TSNO =
2014-08-28 07:53 METAR KOXB 281153Z AUTO 36008KT 7SM CLR 24/21 A2990 RMK AO2 SLP125 T02390206
                 10239 20206 53020 TSNO =
2014-08-28 06:53 METAR KOXB 281053Z AUTO 34006KT 6SM BR CLR 22/20 A2988 RMK AO2 SLP117 T02220200
                 TSNO $ =
2014-08-28 05:53 METAR KOXB 280953Z AUTO 30005KT 9SM CLR 22/20 A2985 RMK AO2 SLP107 T02170200
                 TSNO $ =
2014-08-28 04:53 METAR KOXB 280853Z AUTO 30005KT 10SM FEW055 22/20 A2984 RMK AO2 SLP105 T02170200
                 56007 TSNO $ =
2014-08-28 03:53 METAR KOXB 280753Z AUTO 29006KT 10SM CLR 22/20 A2984 RMK AO2 SLP105 T02170200
                 TSNO $ =
2014-08-28 02:53 METAR KOXB 280653Z AUTO 29005KT 10SM CLR 21/19 A2985 RMK AO2 SLP108 T02110194
                 TSNO $ =
2014-08-28 01:53 METAR KOXB 280553Z AUTO 28005KT 10SM CLR 21/18 A2986 RMK AO2 SLP112 T02110183
                 58018 TSNO $ =
2014-08-28 00:53 METAR KOXB 280453Z AUTO 00000KT 10SM CLR 18/17 A2989 RMK AO2 SLP121 T01780167
                 402670133 TSNO $ =
2014-08-27 23:53 METAR KOXB 280353Z AUTO 00000KT 10SM CLR 18/17 A2990 RMK AO2 SLP125 T01780167
                 TSNO $ =
2014-08-27 22:53 METAR KOXB 280253Z AUTO 00000KT 10SM CLR 18/17 A2992 RMK AO2 SLP131 T01780167
                 58000 TSNO $ =
2014-08-27 20:53 METAR KOXB 280053Z AUTO 00000KT 10SM CLR 19/17 A2992 RMK AO2 SLP131 T01940172
                 TSNO =
2014-08-27 19:53 METAR KOXB 272353Z AUTO 19004KT 10SM CLR 23/19 A2992 RMK AO2 SLP131 T02330189
                 10261 20228 58011 TSNO =
2014-08-27 17:53 METAR KOXB 272153Z AUTO 14004KT 10SM CLR 25/18 A2995 RMK AO2 SLP140 T02500178
                 TSNO =
2014-08-27 16:53 METAR KOXB 272053Z AUTO 13005KT 10SM CLR 25/19 A2995 RMK AO2 SLP142 T02500194
                 56018 TSNO =
2014-08-27 15:53 METAR KOXB 271953Z AUTO 12007KT 10SM CLR 26/19 A2996 RMK AO2 SLP144 T02560189
                 TSNO =
2014-08-27 14:53 METAR KOXB 271853Z AUTO 12005KT 10SM CLR 26/19 A2998 RMK AO2 SLP150 T02560194
                 TSNO =
2014-08-27 13:53 METAR KOXB 271753Z AUTO 11005KT 10SM CLR 26/19 A3000 RMK AO2 SLP160 T02610194
                 10267 20194 58021 TSNO =
2014-08-27 12:53 METAR KOXB 271653Z AUTO 09006KT 10SM CLR 26/19 A3003 RMK AO2 SLP167 T02560194
                 TSNO =
2014-08-27 11:53 METAR KOXB 271553Z AUTO 08008KT 10SM CLR 26/20 A3005 RMK AO2 SLP174 T02610200
                 TSNO =
2014-08-27 10:53 METAR KOXB 271453Z AUTO VRB04KT 10SM CLR 26/19 A3007 RMK AO2 SLP181 T02610194
                 55002 TSNO =

Support USWX by starting your Amazon purchase here.